createdAt,value
2019-01-23T00:00:40.979Z,-0.98
2019-01-23T00:01:30.940Z,-1.02
2019-01-23T00:02:06.610Z,-0.84
2019-01-23T00:02:42.087Z,-0.86
2019-01-23T00:03:17.804Z,-0.96
2019-01-23T00:03:53.255Z,-0.99
2019-01-23T00:04:28.680Z,-1.03
2019-01-23T00:05:04.393Z,-0.99
2019-01-23T00:05:39.821Z,-1.06
2019-01-23T00:06:15.336Z,-1.07
2019-01-23T00:06:51.067Z,-1.01
2019-01-23T00:07:26.506Z,-0.92
2019-01-23T00:08:01.979Z,-1.05
2019-01-23T00:08:37.411Z,-0.98
2019-01-23T00:09:13.102Z,-1.04
2019-01-23T00:09:48.811Z,-1.10
2019-01-23T00:10:24.642Z,-1.06
2019-01-23T00:11:00.644Z,-1.08
2019-01-23T00:11:36.631Z,-1.11
2019-01-23T00:12:12.092Z,-0.97
2019-01-23T00:12:47.525Z,-0.80
2019-01-23T00:13:23.010Z,-0.86
2019-01-23T00:13:58.428Z,-0.98
2019-01-23T00:14:33.854Z,-1.02
2019-01-23T00:15:09.974Z,-1.05
2019-01-23T00:15:46.318Z,-1.11
2019-01-23T00:16:21.745Z,-1.14
2019-01-23T00:16:57.486Z,-1.12
2019-01-23T00:17:32.920Z,-1.12
2019-01-23T00:18:08.699Z,-0.98
2019-01-23T00:18:44.158Z,-1.02
2019-01-23T00:19:19.582Z,-1.08
2019-01-23T00:19:55.010Z,-1.05
2019-01-23T00:20:30.715Z,-0.90
2019-01-23T00:21:06.712Z,-0.93
2019-01-23T00:21:42.445Z,-1.00
2019-01-23T00:22:18.130Z,-0.85
2019-01-23T00:22:53.807Z,-0.83
2019-01-23T00:23:29.670Z,-0.68
2019-01-23T00:24:05.300Z,-0.69
2019-01-23T00:24:41.019Z,-0.86
2019-01-23T00:25:16.796Z,-0.98
2019-01-23T00:25:52.223Z,-0.77
2019-01-23T00:26:27.915Z,-0.69
2019-01-23T00:27:03.360Z,-0.69
2019-01-23T00:27:39.090Z,-0.77
2019-01-23T00:28:14.558Z,-0.84
2019-01-23T00:28:49.996Z,-0.88
2019-01-23T00:29:25.441Z,-0.85
2019-01-23T00:30:01.204Z,-0.83
2019-01-23T00:30:36.629Z,-0.86
2019-01-23T00:31:12.062Z,-0.91
2019-01-23T00:31:47.482Z,-0.73
2019-01-23T00:32:22.909Z,-0.65
2019-01-23T00:32:58.633Z,-0.67
2019-01-23T00:33:34.107Z,-0.78
2019-01-23T00:34:09.560Z,-0.80
2019-01-23T00:34:45.006Z,-0.79
2019-01-23T00:35:20.730Z,-0.88
2019-01-23T00:35:56.182Z,-0.92
2019-01-23T00:36:31.899Z,-0.90
2019-01-23T00:37:07.655Z,-0.86
2019-01-23T00:37:43.083Z,-0.88
2019-01-23T00:38:19.814Z,-0.85
2019-01-23T00:38:55.532Z,-0.78
2019-01-23T00:39:30.975Z,-0.85
2019-01-23T00:40:07.534Z,-0.90
2019-01-23T00:40:42.984Z,-0.93
2019-01-23T00:41:18.471Z,-0.92
2019-01-23T00:41:53.905Z,-0.94
2019-01-23T00:42:29.352Z,-0.81
2019-01-23T00:43:05.117Z,-0.73
2019-01-23T00:43:40.853Z,-0.87
2019-01-23T00:44:16.280Z,-0.93
2019-01-23T00:44:51.746Z,-0.98
2019-01-23T00:45:27.189Z,-0.98
2019-01-23T00:46:02.629Z,-0.82
2019-01-23T00:46:38.139Z,-0.77
2019-01-23T00:47:13.920Z,-0.81
2019-01-23T00:47:49.770Z,-0.78
2019-01-23T00:48:25.779Z,-0.88
2019-01-23T00:49:01.230Z,-0.81
2019-01-23T00:49:36.675Z,-0.84
2019-01-23T00:50:13.305Z,-0.86
2019-01-23T00:50:49.054Z,-0.95
2019-01-23T00:51:24.501Z,-0.99
2019-01-23T00:51:59.961Z,-0.98
2019-01-23T00:52:35.394Z,-1.00
2019-01-23T00:53:10.850Z,-0.81
2019-01-23T00:53:46.329Z,-0.74
2019-01-23T00:54:21.774Z,-0.76
2019-01-23T00:54:57.216Z,-0.70
2019-01-23T00:55:32.641Z,-0.70
2019-01-23T00:56:08.687Z,-0.89
2019-01-23T00:56:44.669Z,-0.84
2019-01-23T00:57:20.113Z,-0.81
2019-01-23T00:57:55.547Z,-0.78
2019-01-23T00:58:31.343Z,-0.83
2019-01-23T00:59:06.907Z,-0.77
2019-01-23T00:59:42.589Z,-0.92
2019-01-23T01:00:20.989Z,-0.98
2019-01-23T01:00:56.407Z,-0.91
2019-01-23T01:01:31.878Z,-0.87
2019-01-23T01:02:07.867Z,-1.00
2019-01-23T01:02:43.587Z,-0.89
2019-01-23T01:03:19.337Z,-0.93
2019-01-23T01:03:54.822Z,-0.95
2019-01-23T01:04:30.248Z,-0.90
2019-01-23T01:05:06.458Z,-0.92
2019-01-23T01:05:41.897Z,-0.91
2019-01-23T01:06:17.323Z,-0.80
2019-01-23T01:06:53.297Z,-0.80
2019-01-23T01:07:29.307Z,-0.77
2019-01-23T01:08:05.150Z,-0.72
2019-01-23T01:08:40.613Z,-0.67
2019-01-23T01:09:16.054Z,-0.70
2019-01-23T01:09:51.761Z,-0.76
2019-01-23T01:10:27.753Z,-0.77
2019-01-23T01:11:03.444Z,-0.73
2019-01-23T01:11:38.866Z,-0.81
2019-01-23T01:12:14.728Z,-0.65
2019-01-23T01:12:50.165Z,-0.72
2019-01-23T01:13:25.619Z,-0.71
2019-01-23T01:14:01.109Z,-0.65
2019-01-23T01:14:36.647Z,-0.74
2019-01-23T01:15:13.544Z,-0.80
2019-01-23T01:15:49.181Z,-0.81
2019-01-23T01:16:24.630Z,-0.74
2019-01-23T01:17:00.067Z,-0.85
2019-01-23T01:17:35.513Z,-0.99
2019-01-23T01:18:11.214Z,-1.02
2019-01-23T01:18:46.963Z,-1.00
2019-01-23T01:19:22.398Z,-1.04
2019-01-23T01:19:57.829Z,-0.99
2019-01-23T01:20:33.510Z,-1.00
2019-01-23T01:21:08.996Z,-1.02
2019-01-23T01:21:44.426Z,-0.89
2019-01-23T01:22:19.872Z,-0.82
2019-01-23T01:22:55.429Z,-1.02
2019-01-23T01:23:31.152Z,-0.91
2019-01-23T01:24:06.899Z,-1.01
2019-01-23T01:24:42.324Z,-1.00
2019-01-23T01:25:18.386Z,-1.17
2019-01-23T01:25:53.851Z,-0.94
2019-01-23T01:26:29.640Z,-0.93
2019-01-23T01:27:05.550Z,-0.96
2019-01-23T01:27:41.268Z,-0.93
2019-01-23T01:28:17.004Z,-1.02
2019-01-23T01:28:56.139Z,-1.01
2019-01-23T01:29:30.069Z,-0.95
2019-01-23T01:30:08.662Z,-0.83
2019-01-23T01:30:44.161Z,-0.79
2019-01-23T01:31:19.889Z,-0.98
2019-01-23T01:31:55.421Z,-0.98
2019-01-23T01:32:30.863Z,-0.89
2019-01-23T01:33:06.339Z,-0.89
2019-01-23T01:33:41.823Z,-0.94
2019-01-23T01:34:17.508Z,-1.02
2019-01-23T01:34:53.218Z,-1.07
2019-01-23T01:35:28.668Z,-0.97
2019-01-23T01:36:04.124Z,-0.85
2019-01-23T01:36:39.922Z,-0.92
2019-01-23T01:37:15.377Z,-0.91
2019-01-23T01:37:51.062Z,-0.90
2019-01-23T01:38:26.489Z,-0.79
2019-01-23T01:39:01.947Z,-0.86
2019-01-23T01:39:37.416Z,-0.91
2019-01-23T01:40:13.967Z,-0.75
2019-01-23T01:40:49.650Z,-0.68
2019-01-23T01:41:25.094Z,-0.70
2019-01-23T01:42:00.798Z,-0.70
2019-01-23T01:42:36.250Z,-0.64
2019-01-23T01:43:11.961Z,-0.64
2019-01-23T01:43:47.430Z,-0.64
2019-01-23T01:44:22.872Z,-0.69
2019-01-23T01:44:58.304Z,-0.70
2019-01-23T01:45:33.749Z,-0.75
2019-01-23T01:46:09.282Z,-0.77
2019-01-23T01:46:45.131Z,-0.88
2019-01-23T01:47:20.525Z,-0.77
2019-01-23T01:47:56.270Z,-0.88
2019-01-23T01:48:31.695Z,-0.85
2019-01-23T01:49:07.512Z,-0.77
2019-01-23T01:49:42.957Z,-0.66
2019-01-23T01:50:21.860Z,-0.70
2019-01-23T01:50:57.577Z,-0.75
2019-01-23T01:51:33.269Z,-0.72
2019-01-23T01:52:08.709Z,-0.75
2019-01-23T01:52:44.131Z,-0.79
2019-01-23T01:53:19.561Z,-0.80
2019-01-23T01:53:55.578Z,-0.86
2019-01-23T01:54:31.267Z,-0.84
2019-01-23T01:55:08.082Z,-0.79
2019-01-23T01:55:43.834Z,-0.75
2019-01-23T01:56:19.266Z,-0.92
2019-01-23T01:56:55.253Z,-0.86
2019-01-23T01:57:30.687Z,-0.95
2019-01-23T01:58:10.016Z,-0.90
2019-01-23T01:58:43.876Z,-0.99
2019-01-23T01:59:19.916Z,-1.01
2019-01-23T01:59:55.729Z,-0.97
2019-01-23T02:00:31.447Z,-0.88
2019-01-23T02:01:07.197Z,-0.93
2019-01-23T02:01:42.921Z,-0.98
2019-01-23T02:02:18.344Z,-0.92
2019-01-23T02:02:53.778Z,-1.02
2019-01-23T02:03:30.349Z,-1.03
2019-01-23T02:04:05.945Z,-1.06
2019-01-23T02:04:41.631Z,-1.06
2019-01-23T02:05:17.843Z,-1.02
2019-01-23T02:05:53.262Z,-0.93
2019-01-23T02:06:28.711Z,-0.75
2019-01-23T02:07:04.342Z,-0.91
2019-01-23T02:07:40.033Z,-0.80
2019-01-23T02:08:15.774Z,-0.87
2019-01-23T02:08:51.278Z,-0.92
2019-01-23T02:09:26.758Z,-0.96
2019-01-23T02:10:02.445Z,-1.00
2019-01-23T02:10:37.911Z,-0.81
2019-01-23T02:11:13.360Z,-0.89
2019-01-23T02:11:48.885Z,-0.97
2019-01-23T02:12:24.331Z,-0.97
2019-01-23T02:12:59.762Z,-0.99
2019-01-23T02:13:35.195Z,-0.92
2019-01-23T02:14:10.670Z,-0.82
2019-01-23T02:14:46.123Z,-0.74
2019-01-23T02:15:21.603Z,-0.80
2019-01-23T02:15:57.623Z,-0.81
2019-01-23T02:16:33.330Z,-0.83
2019-01-23T02:17:08.879Z,-0.93
2019-01-23T02:17:44.496Z,-0.77
2019-01-23T02:18:19.939Z,-0.77
2019-01-23T02:18:55.364Z,-0.85
2019-01-23T02:19:30.848Z,-0.88
2019-01-23T02:20:09.209Z,-0.93
2019-01-23T02:20:44.666Z,-0.94
2019-01-23T02:21:20.436Z,-0.87
2019-01-23T02:21:55.874Z,-0.94
2019-01-23T02:22:31.585Z,-0.91
2019-01-23T02:23:07.026Z,-0.93
2019-01-23T02:23:42.525Z,-0.97
2019-01-23T02:24:18.325Z,-0.94
2019-01-23T02:24:54.069Z,-1.01
2019-01-23T02:25:29.501Z,-0.93
2019-01-23T02:26:04.938Z,-0.97
2019-01-23T02:26:40.392Z,-0.91
2019-01-23T02:27:15.915Z,-0.82
2019-01-23T02:27:51.608Z,-0.88
2019-01-23T02:28:27.053Z,-0.92
2019-01-23T02:29:09.320Z,-0.91
2019-01-23T02:29:39.955Z,-0.69
2019-01-23T02:30:17.027Z,-0.74
2019-01-23T02:30:52.717Z,-0.84
2019-01-23T02:31:28.467Z,-0.92
2019-01-23T02:32:04.149Z,-0.90
2019-01-23T02:32:39.594Z,-0.93
2019-01-23T02:33:15.036Z,-0.90
2019-01-23T02:33:50.501Z,-0.90
2019-01-23T02:34:26.191Z,-0.86
2019-01-23T02:35:01.726Z,-0.87
2019-01-23T02:35:37.184Z,-0.81
2019-01-23T02:36:12.716Z,-0.83
2019-01-23T02:36:48.412Z,-0.81
2019-01-23T02:37:23.841Z,-0.87
2019-01-23T02:37:59.270Z,-0.90
2019-01-23T02:38:34.708Z,-0.93
2019-01-23T02:39:10.421Z,-0.90
2019-01-23T02:39:45.897Z,-0.85
2019-01-23T02:40:22.656Z,-0.86
2019-01-23T02:40:58.705Z,-0.90
2019-01-23T02:41:34.138Z,-0.98
2019-01-23T02:42:09.837Z,-0.93
2019-01-23T02:42:45.261Z,-0.76
2019-01-23T02:43:20.688Z,-0.66
2019-01-23T02:43:56.118Z,-0.79
2019-01-23T02:44:31.549Z,-0.89
2019-01-23T02:45:07.272Z,-0.86
2019-01-23T02:45:42.727Z,-0.70
2019-01-23T02:46:18.710Z,-0.66
2019-01-23T02:46:54.410Z,-0.73
2019-01-23T02:47:29.862Z,-0.73
2019-01-23T02:48:05.941Z,-0.65
2019-01-23T02:48:41.645Z,-0.74
2019-01-23T02:49:17.343Z,-0.87
2019-01-23T02:49:53.140Z,-0.94
2019-01-23T02:50:28.610Z,-0.90
2019-01-23T02:51:04.067Z,-0.89
2019-01-23T02:51:39.551Z,-0.93
2019-01-23T02:52:15.224Z,-0.88
2019-01-23T02:52:50.636Z,-0.81
2019-01-23T02:53:26.074Z,-0.83
2019-01-23T02:54:01.519Z,-0.87
2019-01-23T02:54:37.210Z,-0.82
2019-01-23T02:55:12.703Z,-0.83
2019-01-23T02:55:48.141Z,-0.74
2019-01-23T02:56:23.854Z,-0.79
2019-01-23T02:56:59.622Z,-0.90
2019-01-23T02:57:35.064Z,-0.80
2019-01-23T02:58:10.893Z,-0.80
2019-01-23T02:58:46.353Z,-0.87
2019-01-23T02:59:21.780Z,-0.94
2019-01-23T02:59:57.244Z,-0.92
2019-01-23T03:00:34.025Z,-0.99
2019-01-23T03:01:09.634Z,-0.86
2019-01-23T03:01:45.127Z,-0.85
2019-01-23T03:02:20.536Z,-0.92
2019-01-23T03:02:56.240Z,-0.93
2019-01-23T03:03:31.994Z,-0.99
2019-01-23T03:04:07.479Z,-0.99
2019-01-23T03:04:42.984Z,-1.00
2019-01-23T03:05:19.556Z,-0.98
2019-01-23T03:05:54.967Z,-0.95
2019-01-23T03:06:30.447Z,-0.89
2019-01-23T03:07:05.928Z,-0.90
2019-01-23T03:07:41.502Z,-0.87
2019-01-23T03:08:16.958Z,-0.92
2019-01-23T03:08:52.486Z,-0.97
2019-01-23T03:09:27.928Z,-0.77
2019-01-23T03:10:03.445Z,-0.75
2019-01-23T03:10:38.988Z,-0.90
2019-01-23T03:11:14.442Z,-0.89
2019-01-23T03:11:50.447Z,-0.80
2019-01-23T03:12:25.875Z,-0.85
2019-01-23T03:13:01.637Z,-0.82
2019-01-23T03:13:37.160Z,-0.91
2019-01-23T03:14:12.897Z,-0.93
2019-01-23T03:14:48.347Z,-0.95
2019-01-23T03:15:24.076Z,-0.99
2019-01-23T03:15:59.854Z,-1.00
2019-01-23T03:16:35.550Z,-1.08
2019-01-23T03:17:11.081Z,-0.96
2019-01-23T03:17:46.591Z,-0.96
2019-01-23T03:18:22.157Z,-0.87
2019-01-23T03:18:57.594Z,-0.98
2019-01-23T03:19:33.381Z,-1.01
2019-01-23T03:20:11.040Z,-0.92
2019-01-23T03:20:46.908Z,-0.84
2019-01-23T03:21:22.955Z,-0.96
2019-01-23T03:21:58.412Z,-0.80
2019-01-23T03:22:33.949Z,-0.63
2019-01-23T03:23:09.665Z,-0.69
2019-01-23T03:23:45.253Z,-0.78
2019-01-23T03:24:21.005Z,-0.82
2019-01-23T03:24:57.023Z,-0.87
2019-01-23T03:25:32.613Z,-0.95
2019-01-23T03:26:08.481Z,-0.98
2019-01-23T03:26:43.939Z,-0.99
2019-01-23T03:27:19.362Z,-0.95
2019-01-23T03:27:54.786Z,-0.74
2019-01-23T03:28:30.228Z,-0.69
2019-01-23T03:29:05.687Z,-0.77
2019-01-23T03:29:41.569Z,-0.85
2019-01-23T03:30:19.446Z,-0.95
2019-01-23T03:30:54.924Z,-0.89
2019-01-23T03:31:30.361Z,-0.76
2019-01-23T03:32:05.923Z,-0.86
2019-01-23T03:32:41.391Z,-0.77
2019-01-23T03:33:16.854Z,-0.88
2019-01-23T03:33:52.270Z,-0.77
2019-01-23T03:34:28.260Z,-0.86
2019-01-23T03:35:03.829Z,-0.96
2019-01-23T03:35:39.375Z,-0.95
2019-01-23T03:36:14.838Z,-0.88
2019-01-23T03:36:50.534Z,-0.88
2019-01-23T03:37:25.987Z,-0.96
2019-01-23T03:38:01.432Z,-0.93
2019-01-23T03:38:36.860Z,-0.98
2019-01-23T03:39:12.635Z,-1.03
2019-01-23T03:39:48.066Z,-0.92
2019-01-23T03:40:23.576Z,-0.94
2019-01-23T03:40:59.010Z,-0.96
2019-01-23T03:41:35.001Z,-1.04
2019-01-23T03:42:10.737Z,-0.94
2019-01-23T03:42:46.175Z,-0.85
2019-01-23T03:43:21.604Z,-0.94
2019-01-23T03:43:57.049Z,-0.92
2019-01-23T03:44:32.490Z,-0.97
2019-01-23T03:45:09.523Z,-0.97
2019-01-23T03:45:45.047Z,-0.91
2019-01-23T03:46:20.481Z,-0.81
2019-01-23T03:46:55.915Z,-0.77
2019-01-23T03:47:31.355Z,-0.86
2019-01-23T03:48:06.926Z,-0.90
2019-01-23T03:48:42.465Z,-0.92
2019-01-23T03:49:18.273Z,-0.89
2019-01-23T03:49:53.694Z,-0.88
2019-01-23T03:50:29.136Z,-0.81
2019-01-23T03:51:04.604Z,-0.72
2019-01-23T03:51:40.035Z,-0.79
2019-01-23T03:52:15.666Z,-0.88
2019-01-23T03:52:51.175Z,-0.92
2019-01-23T03:53:26.612Z,-0.96
2019-01-23T03:54:02.077Z,-0.94
2019-01-23T03:54:37.572Z,-0.95
2019-01-23T03:55:13.679Z,-0.95
2019-01-23T03:55:49.135Z,-0.96
2019-01-23T03:56:24.889Z,-0.96
2019-01-23T03:57:00.453Z,-0.96
2019-01-23T03:57:35.962Z,-0.94
2019-01-23T03:58:11.719Z,-0.77
2019-01-23T03:58:47.390Z,-0.87
2019-01-23T03:59:23.076Z,-0.89
2019-01-23T03:59:58.773Z,-0.87
2019-01-23T04:00:34.206Z,-0.88
2019-01-23T04:01:09.982Z,-0.91
2019-01-23T04:01:45.710Z,-0.89
2019-01-23T04:02:21.500Z,-0.87
2019-01-23T04:02:57.188Z,-0.91
2019-01-23T04:03:32.621Z,-0.93
2019-01-23T04:04:08.112Z,-0.87
2019-01-23T04:04:43.648Z,-0.97
2019-01-23T04:05:19.092Z,-0.94
2019-01-23T04:05:55.058Z,-0.99
2019-01-23T04:06:30.494Z,-0.98
2019-01-23T04:07:05.929Z,-1.04
2019-01-23T04:07:41.484Z,-1.06
2019-01-23T04:08:16.934Z,-1.09
2019-01-23T04:08:52.390Z,-1.13
2019-01-23T04:09:27.921Z,-1.05
2019-01-23T04:10:03.581Z,-1.06
2019-01-23T04:10:39.066Z,-1.03
2019-01-23T04:11:14.566Z,-1.10
2019-01-23T04:11:50.456Z,-1.12
2019-01-23T04:12:25.894Z,-1.06
2019-01-23T04:13:01.382Z,-1.04
2019-01-23T04:13:37.065Z,-1.13
2019-01-23T04:14:13.210Z,-1.14
2019-01-23T04:14:48.662Z,-1.22
2019-01-23T04:15:24.110Z,-1.18
2019-01-23T04:15:59.809Z,-1.07
2019-01-23T04:16:35.623Z,-1.12
2019-01-23T04:17:11.364Z,-1.12
2019-01-23T04:17:47.168Z,-1.10
2019-01-23T04:18:22.619Z,-1.12
2019-01-23T04:18:58.044Z,-1.20
2019-01-23T04:19:33.469Z,-1.11
2019-01-23T04:20:12.293Z,-1.18
2019-01-23T04:20:47.774Z,-1.24
2019-01-23T04:21:23.496Z,-1.26
2019-01-23T04:21:58.928Z,-1.29
2019-01-23T04:22:34.376Z,-1.32
2019-01-23T04:23:10.179Z,-1.31
2019-01-23T04:23:45.668Z,-1.32
2019-01-23T04:24:21.097Z,-1.35
2019-01-23T04:24:56.776Z,-1.28
2019-01-23T04:25:32.218Z,-1.21
2019-01-23T04:26:07.716Z,-1.07
2019-01-23T04:26:43.492Z,-0.99
2019-01-23T04:27:19.511Z,-1.04
2019-01-23T04:27:55.291Z,-1.11
2019-01-23T04:28:30.736Z,-1.04
2019-01-23T04:29:06.235Z,-1.09
2019-01-23T04:29:41.822Z,-1.07
2019-01-23T04:30:19.831Z,-0.95
2019-01-23T04:30:55.579Z,-0.82
2019-01-23T04:31:31.094Z,-0.89
2019-01-23T04:32:06.853Z,-0.93
2019-01-23T04:32:42.466Z,-0.99
2019-01-23T04:33:17.944Z,-0.90
2019-01-23T04:33:53.675Z,-1.04
2019-01-23T04:34:29.125Z,-1.14
2019-01-23T04:35:05.313Z,-1.15
2019-01-23T04:35:40.827Z,-1.14
2019-01-23T04:36:16.362Z,-1.14
2019-01-23T04:36:52.052Z,-1.18
2019-01-23T04:37:27.779Z,-1.22
2019-01-23T04:38:03.266Z,-1.20
2019-01-23T04:38:39.050Z,-1.07
2019-01-23T04:39:14.771Z,-1.04
2019-01-23T04:39:50.645Z,-1.01
2019-01-23T04:40:26.357Z,-1.11
2019-01-23T04:41:01.790Z,-1.12
2019-01-23T04:41:37.343Z,-1.18
2019-01-23T04:42:12.929Z,-1.19
2019-01-23T04:42:48.398Z,-1.18
2019-01-23T04:43:24.539Z,-1.04
2019-01-23T04:44:00.273Z,-1.09
2019-01-23T04:44:36.270Z,-1.13
2019-01-23T04:45:12.827Z,-1.10
2019-01-23T04:45:48.540Z,-1.10
2019-01-23T04:46:23.972Z,-1.04
2019-01-23T04:46:59.399Z,-1.07
2019-01-23T04:47:34.985Z,-1.08
2019-01-23T04:48:10.835Z,-0.98
2019-01-23T04:48:46.696Z,-0.86
2019-01-23T04:49:22.115Z,-0.96
2019-01-23T04:49:57.557Z,-1.01
2019-01-23T04:50:34.630Z,-1.04
2019-01-23T04:51:34.984Z,-1.11
2019-01-23T04:52:15.970Z,-1.16
2019-01-23T04:53:12.317Z,-1.16
2019-01-23T04:53:49.039Z,-1.21
2019-01-23T04:54:24.566Z,-1.22
2019-01-23T04:55:00.262Z,-1.25
2019-01-23T04:55:37.845Z,-1.21
2019-01-23T04:56:13.839Z,-1.25
2019-01-23T04:56:49.573Z,-1.19
2019-01-23T04:57:25.005Z,-1.19
2019-01-23T04:58:00.469Z,-1.26
2019-01-23T04:58:36.540Z,-1.27
2019-01-23T04:59:12.309Z,-1.30
2019-01-23T04:59:48.069Z,-1.34
2019-01-23T05:00:25.272Z,-1.32
2019-01-23T05:01:01.051Z,-1.34
2019-01-23T05:01:36.524Z,-1.38
2019-01-23T05:02:12.058Z,-1.26
2019-01-23T05:02:47.797Z,-1.26
2019-01-23T05:03:23.578Z,-1.13
2019-01-23T05:03:59.033Z,-1.13
2019-01-23T05:04:34.782Z,-1.19
2019-01-23T05:05:10.647Z,-1.10
2019-01-23T05:05:46.414Z,-1.05
2019-01-23T05:06:22.148Z,-1.13
2019-01-23T05:06:57.864Z,-1.00
2019-01-23T05:07:33.646Z,-0.98
2019-01-23T05:08:09.422Z,-0.85
2019-01-23T05:08:44.891Z,-0.94
2019-01-23T05:09:20.894Z,-0.98
2019-01-23T05:09:56.630Z,-1.01
2019-01-23T05:10:32.346Z,-1.10
2019-01-23T05:11:07.837Z,-1.12
2019-01-23T05:11:43.313Z,-1.11
2019-01-23T05:12:18.789Z,-0.94
2019-01-23T05:12:54.498Z,-1.02
2019-01-23T05:13:30.222Z,-1.02
2019-01-23T05:14:06.061Z,-1.09
2019-01-23T05:14:41.839Z,-1.04
2019-01-23T05:15:17.593Z,-1.07
2019-01-23T05:15:53.087Z,-1.04
2019-01-23T05:16:28.794Z,-1.10
2019-01-23T05:17:04.493Z,-1.11
2019-01-23T05:17:39.944Z,-1.01
2019-01-23T05:18:15.703Z,-0.98
2019-01-23T05:18:51.161Z,-1.09
2019-01-23T05:19:26.922Z,-0.93
2019-01-23T05:20:02.347Z,-1.04
2019-01-23T05:20:37.866Z,-1.03
2019-01-23T05:21:13.985Z,-1.06
2019-01-23T05:21:49.619Z,-1.09
2019-01-23T05:22:25.067Z,-1.04
2019-01-23T05:23:00.548Z,-0.97
2019-01-23T05:23:36.075Z,-0.96
2019-01-23T05:24:11.621Z,-0.90
2019-01-23T05:24:47.084Z,-1.01
2019-01-23T05:25:22.878Z,-1.09
2019-01-23T05:25:58.306Z,-1.03
2019-01-23T05:26:34.772Z,-1.10
2019-01-23T05:27:10.340Z,-1.17
2019-01-23T05:27:45.825Z,-1.18
2019-01-23T05:28:21.552Z,-1.18
2019-01-23T05:28:56.993Z,-1.11
2019-01-23T05:29:32.425Z,-0.98
2019-01-23T05:30:11.872Z,-0.84
2019-01-23T05:30:47.442Z,-0.85
2019-01-23T05:31:22.857Z,-0.67
2019-01-23T05:31:58.315Z,-0.69
2019-01-23T05:32:34.012Z,-1.07
2019-01-23T05:33:09.544Z,-0.86
2019-01-23T05:33:45.101Z,-0.97
2019-01-23T05:34:20.542Z,-0.94
2019-01-23T05:34:56.226Z,-0.84
2019-01-23T05:35:31.674Z,-0.89
2019-01-23T05:36:07.326Z,-0.83
2019-01-23T05:36:42.768Z,-0.87
2019-01-23T05:37:18.729Z,-0.90
2019-01-23T05:37:54.164Z,-0.75
2019-01-23T05:38:29.766Z,-0.79
2019-01-23T05:39:08.282Z,-0.71
2019-01-23T05:39:44.944Z,-0.71
2019-01-23T05:40:20.501Z,-0.74
2019-01-23T05:40:56.255Z,-0.77
2019-01-23T05:41:32.006Z,-0.85
2019-01-23T05:42:07.733Z,-0.87
2019-01-23T05:42:43.185Z,-0.94
2019-01-23T05:43:18.643Z,-0.84
2019-01-23T05:43:54.076Z,-0.72
2019-01-23T05:44:29.584Z,-0.72
2019-01-23T05:45:05.928Z,-0.85
2019-01-23T05:45:41.693Z,-0.92
2019-01-23T05:46:17.157Z,-0.80
2019-01-23T05:46:52.586Z,-0.71
2019-01-23T05:47:28.017Z,-0.60
2019-01-23T05:48:03.449Z,-0.59
2019-01-23T05:48:39.031Z,-0.52
2019-01-23T05:49:14.515Z,-0.41
2019-01-23T05:49:49.953Z,-0.46
2019-01-23T05:50:25.377Z,-0.45
2019-01-23T05:51:01.104Z,-0.60
2019-01-23T05:51:36.611Z,-0.48
2019-01-23T05:52:12.460Z,-0.63
2019-01-23T05:52:49.021Z,-0.64
2019-01-23T05:53:24.518Z,-0.64
2019-01-23T05:53:59.984Z,-0.62
2019-01-23T05:54:35.449Z,-0.59
2019-01-23T05:55:12.243Z,-0.69
2019-01-23T05:55:47.718Z,-0.64
2019-01-23T05:56:23.169Z,-0.79
2019-01-23T05:56:58.969Z,-0.93
2019-01-23T05:57:34.435Z,-0.90
2019-01-23T05:58:11.960Z,-0.79
2019-01-23T05:58:47.747Z,-0.92
2019-01-23T05:59:23.182Z,-0.93
2019-01-23T06:00:02.382Z,-0.99
2019-01-23T06:00:36.066Z,-0.98
2019-01-23T06:01:11.853Z,-1.04
2019-01-23T06:01:47.642Z,-0.97
2019-01-23T06:02:23.072Z,-0.94
2019-01-23T06:02:58.512Z,-0.92
2019-01-23T06:03:34.153Z,-0.98
2019-01-23T06:04:10.050Z,-0.92
2019-01-23T06:04:46.464Z,-1.05
2019-01-23T06:05:22.311Z,-1.05
2019-01-23T06:05:58.085Z,-0.99
2019-01-23T06:06:33.804Z,-0.83
2019-01-23T06:07:09.928Z,-1.01
2019-01-23T06:07:45.723Z,-0.96
2019-01-23T06:08:21.748Z,-0.91
2019-01-23T06:08:57.232Z,-0.68
2019-01-23T06:09:32.977Z,-0.87
2019-01-23T06:10:08.857Z,-0.96
2019-01-23T06:10:44.406Z,-1.01
2019-01-23T06:11:20.816Z,-1.05
2019-01-23T06:11:56.608Z,-0.88
2019-01-23T06:12:32.057Z,-0.77
2019-01-23T06:13:07.538Z,-0.71
2019-01-23T06:13:43.069Z,-0.81
2019-01-23T06:14:18.594Z,-0.86
2019-01-23T06:14:54.326Z,-0.80
2019-01-23T06:15:29.779Z,-0.66
2019-01-23T06:16:05.268Z,-0.74
2019-01-23T06:16:40.772Z,-0.85
2019-01-23T06:17:16.268Z,-0.76
2019-01-23T06:17:51.710Z,-0.83
2019-01-23T06:18:27.142Z,-0.81
2019-01-23T06:19:02.614Z,-0.73
2019-01-23T06:19:38.154Z,-0.81
2019-01-23T06:20:16.245Z,-0.73
2019-01-23T06:20:51.706Z,-0.71
2019-01-23T06:21:27.144Z,-0.76
2019-01-23T06:22:02.904Z,-0.77
2019-01-23T06:22:38.489Z,-0.84
2019-01-23T06:23:13.981Z,-0.79
2019-01-23T06:23:49.436Z,-0.86
2019-01-23T06:24:24.902Z,-0.74
2019-01-23T06:25:00.351Z,-0.80
2019-01-23T06:25:35.840Z,-0.77
2019-01-23T06:26:11.340Z,-0.67
2019-01-23T06:26:47.127Z,-0.82
2019-01-23T06:27:22.573Z,-0.79
2019-01-23T06:27:58.584Z,-0.68
2019-01-23T06:28:34.370Z,-0.68
2019-01-23T06:29:09.994Z,-0.79
2019-01-23T06:29:45.482Z,-0.89
2019-01-23T06:30:25.657Z,-0.96
2019-01-23T06:31:01.098Z,-0.92
2019-01-23T06:31:37.354Z,-0.97
2019-01-23T06:32:12.894Z,-0.96
2019-01-23T06:32:48.375Z,-0.95
2019-01-23T06:33:24.139Z,-0.97
2019-01-23T06:33:59.846Z,-0.98
2019-01-23T06:34:35.309Z,-0.99
2019-01-23T06:35:10.814Z,-0.91
2019-01-23T06:35:46.597Z,-0.92
2019-01-23T06:36:22.310Z,-0.82
2019-01-23T06:36:58.062Z,-0.68
2019-01-23T06:37:33.488Z,-0.77
2019-01-23T06:38:09.000Z,-0.83
2019-01-23T06:38:44.594Z,-0.73
2019-01-23T06:39:20.064Z,-0.82
2019-01-23T06:39:55.770Z,-0.93
2019-01-23T06:40:31.759Z,-0.93
2019-01-23T06:41:07.237Z,-0.83
2019-01-23T06:41:42.847Z,-0.77
2019-01-23T06:42:18.372Z,-0.85
2019-01-23T06:42:54.117Z,-0.92
2019-01-23T06:43:29.851Z,-0.88
2019-01-23T06:44:05.854Z,-0.84
2019-01-23T06:44:41.748Z,-0.88
2019-01-23T06:45:17.767Z,-0.96
2019-01-23T06:45:53.468Z,-0.86
2019-01-23T06:46:29.366Z,-0.89
2019-01-23T06:47:04.815Z,-0.73
2019-01-23T06:47:40.679Z,-0.60
2019-01-23T06:48:16.173Z,-0.70
2019-01-23T06:48:51.660Z,-0.64
2019-01-23T06:49:30.014Z,-0.75
2019-01-23T06:50:05.674Z,-0.81
2019-01-23T06:50:41.460Z,-0.83
2019-01-23T06:51:16.923Z,-0.89
2019-01-23T06:51:52.353Z,-0.90
2019-01-23T06:52:27.791Z,-0.74
2019-01-23T06:53:03.244Z,-0.74
2019-01-23T06:53:39.063Z,-0.72
2019-01-23T06:54:14.621Z,-0.79
2019-01-23T06:54:50.080Z,-0.84
2019-01-23T06:55:25.802Z,-0.89
2019-01-23T06:56:01.357Z,-0.83
2019-01-23T06:56:36.976Z,-0.82
2019-01-23T06:57:12.685Z,-0.84
2019-01-23T06:57:48.299Z,-0.88
2019-01-23T06:58:24.073Z,-0.70
2019-01-23T06:58:59.837Z,-0.77
2019-01-23T06:59:35.406Z,-0.91
2019-01-23T07:00:17.445Z,-0.93
2019-01-23T07:00:53.015Z,-0.89
2019-01-23T07:01:28.447Z,-0.86
2019-01-23T07:02:03.879Z,-0.92
2019-01-23T07:02:39.799Z,-0.81
2019-01-23T07:03:15.275Z,-0.92
2019-01-23T07:03:50.719Z,-0.93
2019-01-23T07:04:26.427Z,-0.86
2019-01-23T07:05:01.902Z,-0.97
2019-01-23T07:05:37.466Z,-0.75
2019-01-23T07:06:13.398Z,-0.77
2019-01-23T07:06:49.121Z,-0.93
2019-01-23T07:07:24.605Z,-1.01
2019-01-23T07:08:00.384Z,-0.98
2019-01-23T07:08:35.872Z,-1.06
2019-01-23T07:09:11.475Z,-1.03
2019-01-23T07:09:47.009Z,-1.08
2019-01-23T07:10:24.757Z,-0.96
2019-01-23T07:11:00.291Z,-0.89
2019-01-23T07:11:35.734Z,-0.90
2019-01-23T07:12:11.539Z,-0.83
2019-01-23T07:12:47.312Z,-0.90
2019-01-23T07:13:22.743Z,-0.87
2019-01-23T07:13:58.205Z,-0.92
2019-01-23T07:14:34.050Z,-0.88
2019-01-23T07:15:10.768Z,-0.81
2019-01-23T07:15:46.349Z,-0.64
2019-01-23T07:16:22.081Z,-0.54
2019-01-23T07:16:57.768Z,-0.60
2019-01-23T07:17:33.290Z,-0.67
2019-01-23T07:18:08.782Z,-0.77
2019-01-23T07:18:44.292Z,-0.77
2019-01-23T07:19:19.762Z,-0.79
2019-01-23T07:19:55.217Z,-0.88
2019-01-23T07:20:30.654Z,-0.73
2019-01-23T07:21:06.102Z,-0.79
2019-01-23T07:21:41.562Z,-0.86
2019-01-23T07:22:17.309Z,-0.90
2019-01-23T07:22:53.030Z,-0.88
2019-01-23T07:23:28.743Z,-0.96
2019-01-23T07:24:04.562Z,-1.03
2019-01-23T07:24:40.122Z,-1.04
2019-01-23T07:25:15.820Z,-0.99
2019-01-23T07:25:51.507Z,-1.02
2019-01-23T07:26:27.014Z,-0.84
2019-01-23T07:27:02.480Z,-0.90
2019-01-23T07:27:37.976Z,-0.92
2019-01-23T07:28:13.513Z,-0.85
2019-01-23T07:28:49.519Z,-0.89
2019-01-23T07:29:24.897Z,-0.88
2019-01-23T07:30:00.326Z,-0.83
2019-01-23T07:30:38.639Z,-0.96
2019-01-23T07:31:14.190Z,-0.99
2019-01-23T07:31:49.894Z,-0.91
2019-01-23T07:32:25.623Z,-1.08
2019-01-23T07:33:01.098Z,-1.08
2019-01-23T07:33:36.552Z,-1.09
2019-01-23T07:34:12.103Z,-1.01
2019-01-23T07:34:47.559Z,-1.01
2019-01-23T07:35:23.332Z,-1.06
2019-01-23T07:35:58.760Z,-0.95
2019-01-23T07:36:34.215Z,-0.80
2019-01-23T07:37:09.641Z,-0.82
2019-01-23T07:37:45.065Z,-0.83
2019-01-23T07:38:20.911Z,-0.87
2019-01-23T07:38:56.352Z,-0.80
2019-01-23T07:39:32.128Z,-0.88
2019-01-23T07:40:08.270Z,-0.76
2019-01-23T07:40:43.974Z,-0.86
2019-01-23T07:41:19.636Z,-0.88